Time;durP1;ratioP1;P1;durP2;ratioP2;P2;SDS_P1;SDS_P2;PMS_P1;PMS_P2;Temp;Humidity;BMP_temperature;BMP_pressure;BME280_temperature;BME280_humidity;BME280_pressure;Samples;Min_cycle;Max_cycle;Signal;HPM_P1;HPM_P2
2021/11/07 00:00:29;;;;;;;;;;;;;;;13.21;51.44;102187.13;4145558;28;19932;-66
2021/11/07 00:02:43;;;;;;;;;;;;;;;13.21;51.52;102201.19;4147195;28;19921;-66
2021/11/07 00:04:49;;;;;;;;;;;;;;;13.20;51.51;102191.50;4146637;28;19929;-65
2021/11/07 00:07:07;;;;;;;;;;;;;;;13.21;51.49;102200.31;4146832;28;19921;-64
2021/11/07 00:11:24;;;;;;;;;;;;;;;13.20;51.65;102193.31;4136098;28;19929;-64
2021/11/07 00:13:27;;;;;;;;;;;;;;;13.19;51.45;102184.50;4146913;28;19933;-66
2021/11/07 00:15:30;;;;;;;;;;;;;;;13.20;51.53;102182.72;4146571;28;20044;-66
2021/11/07 00:17:33;;;;;;;;;;;;;;;13.19;51.81;102178.34;4146559;28;20447;-64
2021/11/07 00:19:39;;;;;;;;;;;;;;;13.18;51.74;102174.81;4146857;28;20399;-64
2021/11/07 00:24:12;;;;;;;;;;;;;;;13.18;51.74;102172.19;4146655;28;19921;-65
2021/11/07 00:26:23;;;;;;;;;;;;;;;13.17;51.97;102162.53;4135263;28;20345;-64
2021/11/07 00:28:33;;;;;;;;;;;;;;;13.18;51.96;102163.41;4146866;28;19925;-65
2021/11/07 00:32:52;;;;;;;;;;;;;;;13.16;51.62;102170.47;4144791;28;19973;-64
2021/11/07 00:35:35;;;;;;;;;;;;;;;13.16;51.60;102171.38;4146148;28;19921;-66
2021/11/07 00:37:34;;;;;;;;;;;;;;;13.18;51.68;102179.25;4138659;28;19932;-63
2021/11/07 00:40:01;;;;;;;;;;;;;;;13.16;51.83;102166.09;4146324;28;19929;-64
2021/11/07 00:48:52;;;;;;;;;;;;;;;13.15;51.66;102171.38;4146175;28;19921;-66
2021/11/07 00:51:05;;;;;;;;;;;;;;;13.14;51.78;102157.31;4138278;28;19921;-65
2021/11/07 00:53:26;;;;;;;;;;;;;;;13.15;51.75;102163.47;4146580;28;19925;-64
2021/11/07 00:55:40;;;;;;;;;;;;;;;13.14;51.96;102153.81;4145988;28;20397;-66
2021/11/07 00:58:06;;;;;;;;;;;;;;;13.14;52.05;102154.69;4146092;28;19987;-66
2021/11/07 01:00:17;;;;;;;;;;;;;;;13.14;51.82;102151.19;4146190;28;19929;-62
2021/11/07 01:02:22;;;;;;;;;;;;;;;13.14;51.88;102144.09;4145581;28;20336;-67
2021/11/07 01:04:27;;;;;;;;;;;;;;;13.14;52.03;102141.47;4146386;28;19921;-66
2021/11/07 01:06:30;;;;;;;;;;;;;;;13.13;51.73;102137.09;4145781;28;20386;-67
2021/11/07 01:08:32;;;;;;;;;;;;;;;13.13;51.94;102137.09;4146284;28;19921;-66
2021/11/07 01:10:35;;;;;;;;;;;;;;;13.14;51.77;102143.25;4145239;28;19921;-67
2021/11/07 01:12:37;;;;;;;;;;;;;;;13.14;52.03;102132.69;4145879;28;19921;-64
2021/11/07 01:14:39;;;;;;;;;;;;;;;13.12;51.84;102121.28;4146188;28;19929;-65
2021/11/07 01:16:42;;;;;;;;;;;;;;;13.13;51.78;102120.38;4145745;28;20386;-64
2021/11/07 01:18:44;;;;;;;;;;;;;;;13.13;51.90;102112.47;4153094;28;19976;-64
2021/11/07 01:20:48;;;;;;;;;;;;;;;13.13;51.92;102112.47;4146273;28;20289;-68
2021/11/07 01:24:58;;;;;;;;;;;;;;;13.13;51.92;102100.09;4144607;28;19925;-67
2021/11/07 01:29:26;;;;;;;;;;;;;;;13.12;51.88;102081.66;4145923;28;19937;-67
2021/11/07 01:31:29;;;;;;;;;;;;;;;13.11;52.21;102083.44;4145736;28;20345;-64
2021/11/07 01:33:31;;;;;;;;;;;;;;;13.12;52.24;102085.16;4142665;28;19929;-65
2021/11/07 01:37:53;;;;;;;;;;;;;;;13.09;52.04;102078.19;4145845;28;19921;-65
2021/11/07 01:43:59;;;;;;;;;;;;;;;13.10;52.07;102066.72;4145766;28;19952;-64
2021/11/07 01:46:14;;;;;;;;;;;;;;;13.10;52.20;102061.44;4146032;28;19928;-63
2021/11/07 01:48:20;;;;;;;;;;;;;;;13.11;52.09;102067.59;4145920;28;19926;-65
2021/11/07 01:50:22;;;;;;;;;;;;;;;13.09;52.13;102064.13;4146287;28;20348;-63
2021/11/07 01:52:27;;;;;;;;;;;;;;;13.09;52.15;102069.41;4145848;28;19921;-66
2021/11/07 01:54:35;;;;;;;;;;;;;;;13.09;52.22;102064.97;4145673;28;20416;-63
2021/11/07 01:56:37;;;;;;;;;;;;;;;13.10;51.92;102063.22;4146147;28;19921;-63
2021/11/07 01:58:40;;;;;;;;;;;;;;;13.09;51.90;102064.97;4145407;28;19921;-63
2021/11/07 02:00:43;;;;;;;;;;;;;;;13.09;51.95;102067.63;4145476;28;20365;-64
2021/11/07 02:02:45;;;;;;;;;;;;;;;13.10;52.11;102060.56;4145465;28;19928;-64
2021/11/07 02:04:48;;;;;;;;;;;;;;;13.10;52.13;102071.13;4145623;28;19979;-64
2021/11/07 02:06:50;;;;;;;;;;;;;;;13.09;51.95;102062.34;4145592;28;19984;-63
2021/11/07 02:08:52;;;;;;;;;;;;;;;13.10;51.99;102060.56;4145320;28;20313;-65
2021/11/07 02:10:55;;;;;;;;;;;;;;;13.10;51.93;102063.22;4145627;28;19925;-67
2021/11/07 02:12:57;;;;;;;;;;;;;;;13.09;52.25;102054.41;4145730;28;20551;-64
2021/11/07 02:14:58;;;;;;;;;;;;;;;13.09;51.83;102054.41;4148536;28;20459;-65
2021/11/07 02:17:01;;;;;;;;;;;;;;;13.08;52.23;102052.66;4149374;28;20032;-64
2021/11/07 02:19:03;;;;;;;;;;;;;;;13.09;52.01;102045.63;4154636;28;19921;-64
2021/11/07 02:21:05;;;;;;;;;;;;;;;13.09;51.99;102053.56;4148837;28;19922;-65
2021/11/07 02:23:11;;;;;;;;;;;;;;;13.10;52.25;102047.38;4148577;28;19921;-63
2021/11/07 02:25:13;;;;;;;;;;;;;;;13.10;52.14;102044.72;4145118;28;19922;-65
2021/11/07 02:27:16;;;;;;;;;;;;;;;13.09;52.26;102041.19;4147384;28;19921;-63
2021/11/07 02:29:19;;;;;;;;;;;;;;;13.09;52.01;102046.47;4148026;28;19987;-65
2021/11/07 02:31:21;;;;;;;;;;;;;;;13.09;52.24;102037.72;4148289;28;19976;-64
2021/11/07 02:33:23;;;;;;;;;;;;;;;13.08;52.24;102036.81;4148376;28;20366;-63
2021/11/07 02:35:26;;;;;;;;;;;;;;;13.10;52.33;102034.16;4148103;28;19944;-64
2021/11/07 02:37:29;;;;;;;;;;;;;;;13.09;52.10;102028.00;4148492;28;20297;-64
2021/11/07 02:39:31;;;;;;;;;;;;;;;13.09;52.52;102021.84;4148114;28;19921;-64
2021/11/07 02:41:33;;;;;;;;;;;;;;;13.08;52.16;102028.91;4148149;28;19975;-64
2021/11/07 02:43:43;;;;;;;;;;;;;;;13.08;52.15;102026.25;4148327;28;19968;-63
2021/11/07 02:45:45;;;;;;;;;;;;;;;13.09;52.31;102016.56;4146801;28;20389;-65
2021/11/07 02:47:48;;;;;;;;;;;;;;;13.09;52.15;102013.94;4148198;28;19922;-64
2021/11/07 02:49:50;;;;;;;;;;;;;;;13.08;52.23;102012.19;4147746;28;20345;-63
2021/11/07 02:51:54;;;;;;;;;;;;;;;13.08;52.61;102007.75;4148078;28;19972;-64
2021/11/07 02:53:56;;;;;;;;;;;;;;;13.08;52.24;102005.13;4147984;28;19921;-67
2021/11/07 02:55:58;;;;;;;;;;;;;;;13.08;52.31;101999.00;4147791;28;20369;-65
2021/11/07 02:58:01;;;;;;;;;;;;;;;13.09;52.50;102003.38;4148149;28;20289;-64
2021/11/07 03:00:04;;;;;;;;;;;;;;;13.09;52.33;102011.28;4147757;28;20373;-64
2021/11/07 03:02:07;;;;;;;;;;;;;;;13.09;52.51;101992.81;4147865;28;19977;-67
2021/11/07 03:04:09;;;;;;;;;;;;;;;13.08;52.58;101997.19;4148048;28;19975;-67
2021/11/07 03:06:11;;;;;;;;;;;;;;;13.09;52.43;101995.44;4147526;28;19943;-65
2021/11/07 03:08:13;;;;;;;;;;;;;;;13.08;52.63;101997.19;4147841;28;20452;-63
2021/11/07 03:10:16;;;;;;;;;;;;;;;13.08;52.75;101991.06;4147432;28;19928;-65
2021/11/07 03:12:18;;;;;;;;;;;;;;;13.08;52.56;101985.78;4147619;28;19963;-64
2021/11/07 03:14:22;;;;;;;;;;;;;;;13.09;52.65;101987.53;4147864;28;19922;-63
2021/11/07 03:16:23;;;;;;;;;;;;;;;13.09;52.57;101987.53;4147366;28;20266;-62
2021/11/07 03:18:25;;;;;;;;;;;;;;;13.08;52.45;101986.63;4160010;28;19921;-66
2021/11/07 03:20:28;;;;;;;;;;;;;;;13.09;52.78;101987.53;4158859;28;20366;-65
2021/11/07 03:22:30;;;;;;;;;;;;;;;13.08;52.72;101988.41;4147301;28;19984;-64
2021/11/07 03:24:32;;;;;;;;;;;;;;;13.08;52.59;101988.41;4147428;28;19925;-66
2021/11/07 03:26:37;;;;;;;;;;;;;;;13.08;52.66;101988.41;4147247;28;19921;-64
2021/11/07 03:28:41;;;;;;;;;;;;;;;13.08;52.48;101988.41;4147438;28;19928;-65
2021/11/07 03:31:01;;;;;;;;;;;;;;;13.08;52.80;101986.63;4147333;28;19922;-66
2021/11/07 03:33:27;;;;;;;;;;;;;;;13.08;52.68;101981.34;4137456;28;20503;-64
2021/11/07 03:35:32;;;;;;;;;;;;;;;13.09;52.89;101982.25;4147219;28;19968;-65
2021/11/07 03:37:44;;;;;;;;;;;;;;;13.07;53.03;101977.00;4147231;28;19921;-63
2021/11/07 03:39:46;;;;;;;;;;;;;;;13.08;53.10;101977.84;4147425;28;19921;-62
2021/11/07 03:41:48;;;;;;;;;;;;;;;13.08;53.01;101968.16;4147129;28;19929;-65
2021/11/07 03:43:50;;;;;;;;;;;;;;;13.08;53.02;101977.84;4147269;28;19925;-64
2021/11/07 03:45:52;;;;;;;;;;;;;;;13.08;52.87;101975.22;4147042;28;20304;-64
2021/11/07 03:47:54;;;;;;;;;;;;;;;13.08;53.10;101973.44;4147119;28;20377;-64
2021/11/07 03:49:57;;;;;;;;;;;;;;;13.08;52.76;101978.72;4146926;28;19922;-64
2021/11/07 03:52:00;;;;;;;;;;;;;;;13.08;52.83;101973.44;4146959;28;20334;-66
2021/11/07 03:54:03;;;;;;;;;;;;;;;13.08;53.08;101975.22;4147037;28;19921;-64
2021/11/07 03:56:05;;;;;;;;;;;;;;;13.08;53.04;101977.84;4147225;28;19976;-65
2021/11/07 03:58:07;;;;;;;;;;;;;;;13.08;53.02;101972.56;4146573;28;20056;-64
2021/11/07 04:00:11;;;;;;;;;;;;;;;13.08;52.97;101975.22;4146822;28;19925;-67
2021/11/07 04:02:13;;;;;;;;;;;;;;;13.08;53.23;101977.84;4146608;28;19983;-64
2021/11/07 04:04:15;;;;;;;;;;;;;;;13.08;53.02;101977.84;4146776;28;20409;-63
2021/11/07 04:06:17;;;;;;;;;;;;;;;13.08;53.34;101970.78;4146718;28;19975;-65
2021/11/07 04:08:19;;;;;;;;;;;;;;;13.08;53.17;101972.56;4146464;28;19972;-66
2021/11/07 04:10:21;;;;;;;;;;;;;;;13.07;53.20;101965.56;4145704;28;19921;-64
2021/11/07 04:12:23;;;;;;;;;;;;;;;13.08;53.06;101962.00;4146427;28;19922;-64
2021/11/07 04:14:32;;;;;;;;;;;;;;;13.07;53.26;101961.16;4146922;28;19921;-66
2021/11/07 04:16:35;;;;;;;;;;;;;;;13.08;53.34;101962.00;4147061;28;19921;-63
2021/11/07 04:18:38;;;;;;;;;;;;;;;13.08;53.08;101954.09;4147171;28;19921;-63
2021/11/07 04:20:40;;;;;;;;;;;;;;;13.08;53.21;101951.44;4146659;28;19928;-65
2021/11/07 04:22:43;;;;;;;;;;;;;;;13.07;53.50;101953.22;4146345;28;20404;-66
2021/11/07 04:24:44;;;;;;;;;;;;;;;13.07;53.28;101950.59;4146740;28;20364;-63
2021/11/07 04:26:46;;;;;;;;;;;;;;;13.07;53.55;101947.06;4146799;28;19922;-65
2021/11/07 04:28:49;;;;;;;;;;;;;;;13.08;53.34;101946.16;4146187;28;19928;-64
2021/11/07 04:30:51;;;;;;;;;;;;;;;13.08;53.38;101946.16;4146419;28;19948;-68
2021/11/07 04:32:53;;;;;;;;;;;;;;;13.07;53.56;101945.31;4134764;28;19921;-67
2021/11/07 04:34:55;;;;;;;;;;;;;;;13.07;53.42;101945.31;4146362;28;20007;-64
2021/11/07 04:36:57;;;;;;;;;;;;;;;13.07;53.54;101952.34;4145572;28;19922;-66
2021/11/07 04:39:00;;;;;;;;;;;;;;;13.07;53.39;101944.44;4146258;28;19929;-63
2021/11/07 04:41:03;;;;;;;;;;;;;;;13.06;53.39;101943.56;4146245;28;19921;-63
2021/11/07 04:43:05;;;;;;;;;;;;;;;13.07;53.57;101942.66;4146180;28;20353;-66
2021/11/07 04:45:07;;;;;;;;;;;;;;;13.08;53.48;101946.16;4146352;28;20338;-66
2021/11/07 04:47:10;;;;;;;;;;;;;;;13.07;53.52;101942.66;4146363;28;19932;-63
2021/11/07 04:49:12;;;;;;;;;;;;;;;13.07;53.48;101942.66;4146038;28;19967;-65
2021/11/07 04:51:15;;;;;;;;;;;;;;;13.08;53.59;101932.97;4146509;28;19922;-66
2021/11/07 04:53:21;;;;;;;;;;;;;;;13.06;53.89;101925.09;4146039;28;19921;-62
2021/11/07 04:55:23;;;;;;;;;;;;;;;13.06;53.65;101917.16;4146127;28;19925;-66
2021/11/07 04:57:25;;;;;;;;;;;;;;;13.07;53.57;101912.72;4146179;28;20062;-63
2021/11/07 04:59:28;;;;;;;;;;;;;;;13.06;53.51;101913.63;4145909;28;20429;-64
2021/11/07 05:01:30;;;;;;;;;;;;;;;13.08;53.49;101917.97;4145836;28;19956;-66
2021/11/07 05:03:32;;;;;;;;;;;;;;;13.07;53.93;101924.19;4145929;28;19928;-65
2021/11/07 05:05:35;;;;;;;;;;;;;;;13.06;53.83;101913.63;4146145;28;19925;-63
2021/11/07 05:07:37;;;;;;;;;;;;;;;13.07;53.81;101907.44;4146165;28;19921;-64
2021/11/07 05:09:39;;;;;;;;;;;;;;;13.07;53.77;101907.44;4145768;28;20451;-66
2021/11/07 05:11:43;;;;;;;;;;;;;;;13.07;53.83;101907.44;4146062;28;19925;-65
2021/11/07 05:13:45;;;;;;;;;;;;;;;13.07;53.54;101905.69;4146063;28;20371;-64
2021/11/07 05:15:47;;;;;;;;;;;;;;;13.07;54.03;101894.25;4144787;28;19944;-63
2021/11/07 05:17:50;;;;;;;;;;;;;;;13.06;53.80;101888.09;4153547;28;19975;-63
2021/11/07 05:19:52;;;;;;;;;;;;;;;13.07;53.92;101888.97;4154024;28;19930;-64
2021/11/07 05:21:54;;;;;;;;;;;;;;;13.07;53.76;101891.59;4146288;28;20353;-63
2021/11/07 05:23:56;;;;;;;;;;;;;;;13.07;53.74;101899.53;4145758;28;19921;-63
2021/11/07 05:25:58;;;;;;;;;;;;;;;13.06;53.65;101898.66;4145816;28;19929;-64
2021/11/07 05:28:00;;;;;;;;;;;;;;;13.07;53.94;101902.16;4146046;28;19925;-67
2021/11/07 05:30:04;;;;;;;;;;;;;;;13.06;54.00;101901.31;4145685;28;19975;-66
2021/11/07 05:32:06;;;;;;;;;;;;;;;13.07;53.92;101896.88;4145885;28;19986;-63
2021/11/07 05:34:08;;;;;;;;;;;;;;;13.06;54.07;101896.03;4146223;28;20411;-65
2021/11/07 05:36:10;;;;;;;;;;;;;;;13.07;53.83;101895.13;4145675;28;19921;-65
2021/11/07 05:38:12;;;;;;;;;;;;;;;13.06;53.82;101882.81;4146064;28;19927;-65
2021/11/07 05:40:15;;;;;;;;;;;;;;;13.07;54.00;101874.00;4145355;28;19921;-63
2021/11/07 05:42:17;;;;;;;;;;;;;;;13.07;53.82;101867.84;4135581;28;19921;-64
2021/11/07 05:44:19;;;;;;;;;;;;;;;13.06;54.06;101872.25;4144721;28;19922;-63
2021/11/07 05:46:21;;;;;;;;;;;;;;;13.06;53.82;101879.31;4136426;28;19921;-66
2021/11/07 05:48:23;;;;;;;;;;;;;;;13.06;54.01;101874.91;4142015;28;19976;-66
2021/11/07 05:50:25;;;;;;;;;;;;;;;12.92;54.05;101848.84;4144635;28;19921;-63
2021/11/07 05:52:29;;;;;;;;;;;;;;;13.07;54.06;101865.19;4149026;28;19966;-63
2021/11/07 05:54:32;;;;;;;;;;;;;;;13.06;53.94;101866.97;4149177;28;19925;-63
2021/11/07 05:56:34;;;;;;;;;;;;;;;13.06;54.12;101874.91;4148753;28;19922;-63
2021/11/07 05:58:36;;;;;;;;;;;;;;;13.07;53.95;101876.63;4148910;28;19928;-66
2021/11/07 06:00:38;;;;;;;;;;;;;;;13.06;54.06;101874.91;4148640;28;19929;-64
2021/11/07 06:02:41;;;;;;;;;;;;;;;13.06;54.08;101879.31;4148375;28;19921;-65
2021/11/07 06:04:48;;;;;;;;;;;;;;;13.06;54.09;101881.94;4148805;28;19952;-65
2021/11/07 06:06:50;;;;;;;;;;;;;;;13.06;54.36;101887.22;4148657;28;19933;-67
2021/11/07 06:08:52;;;;;;;;;;;;;;;13.05;54.16;101889.00;4148575;28;20547;-67
2021/11/07 06:10:54;;;;;;;;;;;;;;;13.06;54.16;101890.75;4148708;28;20377;-64
2021/11/07 06:12:56;;;;;;;;;;;;;;;13.05;54.20;101891.66;4148973;28;19929;-65
2021/11/07 06:14:58;;;;;;;;;;;;;;;13.04;53.95;101897.84;4149024;28;20440;-64
2021/11/07 06:17:01;;;;;;;;;;;;;;;13.05;54.34;101896.94;4149314;28;19925;-66
2021/11/07 06:19:03;;;;;;;;;;;;;;;13.06;54.08;101893.38;4154395;28;20301;-64
2021/11/07 06:21:05;;;;;;;;;;;;;;;13.05;54.20;101881.09;4163457;28;19928;-67
2021/11/07 06:23:09;;;;;;;;;;;;;;;13.06;54.36;101890.75;4148598;28;19979;-64
2021/11/07 06:25:11;;;;;;;;;;;;;;;13.06;54.25;101885.47;4148664;28;19921;-65
2021/11/07 06:27:13;;;;;;;;;;;;;;;13.05;54.46;101881.09;4148247;28;19936;-64
2021/11/07 06:29:15;;;;;;;;;;;;;;;13.05;54.49;101877.56;4148654;28;19925;-65
2021/11/07 06:31:18;;;;;;;;;;;;;;;13.05;54.46;101889.00;4148152;28;19921;-65
2021/11/07 06:33:20;;;;;;;;;;;;;;;13.05;54.33;101878.44;4147084;28;20402;-66
2021/11/07 06:35:22;;;;;;;;;;;;;;;13.06;54.29;101879.31;4148509;28;19968;-67
2021/11/07 06:37:25;;;;;;;;;;;;;;;13.07;54.36;101873.13;4148165;28;19928;-63
2021/11/07 06:39:28;;;;;;;;;;;;;;;13.06;54.15;101869.63;4148178;28;19984;-65
2021/11/07 06:41:31;;;;;;;;;;;;;;;13.06;54.43;101877.53;4148282;28;19922;-66
2021/11/07 06:43:33;;;;;;;;;;;;;;;13.07;54.42;101867.84;4147973;28;19932;-66
2021/11/07 06:45:35;;;;;;;;;;;;;;;13.07;54.28;101867.84;4148083;28;19983;-67
2021/11/07 06:47:37;;;;;;;;;;;;;;;13.07;54.23;101859.91;4147629;28;20423;-67
2021/11/07 06:49:39;;;;;;;;;;;;;;;13.07;54.44;101858.16;4148032;28;19922;-67
2021/11/07 06:51:43;;;;;;;;;;;;;;;13.07;54.29;101859.91;4148107;28;19921;-67
2021/11/07 06:53:45;;;;;;;;;;;;;;;13.07;54.30;101859.91;4147663;28;20412;-68
2021/11/07 06:55:47;;;;;;;;;;;;;;;13.07;54.27;101868.72;4147996;28;19929;-65
2021/11/07 06:57:49;;;;;;;;;;;;;;;13.07;54.34;101871.34;4147736;28;19976;-65
2021/11/07 06:59:52;;;;;;;;;;;;;;;13.07;54.48;101871.34;4146896;28;19975;-65
2021/11/07 07:01:54;;;;;;;;;;;;;;;13.07;54.47;101865.19;4147932;28;19922;-64
2021/11/07 07:03:56;;;;;;;;;;;;;;;13.07;54.55;101866.06;4147482;28;19921;-66
2021/11/07 07:05:58;;;;;;;;;;;;;;;13.07;54.57;101865.19;4148006;28;19944;-66
2021/11/07 07:08:09;;;;;;;;;;;;;;;13.08;54.67;101862.50;4147713;28;20380;-67
2021/11/07 07:10:35;;;;;;;;;;;;;;;13.08;54.71;101861.66;4137204;28;20375;-65
2021/11/07 07:12:49;;;;;;;;;;;;;;;13.08;54.71;101859.00;4147779;28;19984;-66
2021/11/07 07:15:06;;;;;;;;;;;;;;;13.07;54.49;101854.63;4147718;28;20365;-65
2021/11/07 07:33:00;;;;;;;;;;;;;;;13.07;54.80;101871.34;4147321;28;19921;-65
2021/11/07 07:35:04;;;;;;;;;;;;;;;13.08;54.94;101880.13;4147253;28;19921;-67
2021/11/07 07:37:06;;;;;;;;;;;;;;;13.08;54.71;101881.00;4147344;28;19968;-66
2021/11/07 07:39:08;;;;;;;;;;;;;;;13.07;55.19;101875.75;4147178;28;19921;-64
2021/11/07 07:41:10;;;;;;;;;;;;;;;13.07;54.93;101881.03;4136500;28;19930;-65
2021/11/07 07:43:12;;;;;;;;;;;;;;;13.07;54.83;101878.41;4147296;28;19968;-67
2021/11/07 07:45:15;;;;;;;;;;;;;;;13.06;54.88;101880.19;4146821;28;19921;-68
2021/11/07 07:47:18;;;;;;;;;;;;;;;13.07;54.80;101871.34;4147089;28;19922;-67
2021/11/07 07:49:20;;;;;;;;;;;;;;;13.08;55.15;101877.50;4147079;28;19921;-64
2021/11/07 07:51:24;;;;;;;;;;;;;;;13.06;55.01;101869.63;4147180;28;19944;-66
2021/11/07 07:53:26;;;;;;;;;;;;;;;13.07;55.16;101862.56;4147228;28;19975;-64
2021/11/07 07:55:28;;;;;;;;;;;;;;;13.07;55.06;101857.28;4146832;28;20016;-64
2021/11/07 07:57:30;;;;;;;;;;;;;;;13.06;54.90;101852.88;4147081;28;20460;-65
2021/11/07 07:59:32;;;;;;;;;;;;;;;13.06;55.22;101851.13;4146894;28;20008;-64
2021/11/07 08:01:34;;;;;;;;;;;;;;;13.07;54.87;101866.06;4146888;28;19948;-68
2021/11/07 08:03:37;;;;;;;;;;;;;;;13.08;54.77;101866.94;4146964;28;19944;-62
2021/11/07 08:05:39;;;;;;;;;;;;;;;13.07;55.07;101863.44;4146360;28;19921;-65
2021/11/07 08:07:44;;;;;;;;;;;;;;;13.06;54.87;101869.63;4146815;28;19925;-66
2021/11/07 08:09:46;;;;;;;;;;;;;;;13.07;55.20;101865.19;4146687;28;19925;-68
2021/11/07 08:11:48;;;;;;;;;;;;;;;13.07;55.00;101863.44;4146798;28;19921;-67
2021/11/07 08:13:52;;;;;;;;;;;;;;;13.06;54.99;101872.25;4146896;28;19921;-63
2021/11/07 08:15:55;;;;;;;;;;;;;;;13.07;54.87;101874.00;4146505;28;19921;-66
2021/11/07 08:17:57;;;;;;;;;;;;;;;13.07;54.72;101874.00;4155257;28;20003;-68
2021/11/07 08:19:59;;;;;;;;;;;;;;;13.06;55.06;101877.53;4162364;28;19922;-67
2021/11/07 08:22:02;;;;;;;;;;;;;;;13.08;55.11;101870.44;4146544;28;20364;-64
2021/11/07 08:24:05;;;;;;;;;;;;;;;13.08;55.15;101869.56;4146804;28;19925;-65
2021/11/07 08:26:08;;;;;;;;;;;;;;;13.08;54.91;101859.00;4146594;28;20011;-67
2021/11/07 08:28:10;;;;;;;;;;;;;;;13.09;54.89;101869.53;4146728;28;19948;-67
2021/11/07 08:30:13;;;;;;;;;;;;;;;13.09;55.02;101866.03;4146799;28;19928;-66
2021/11/07 08:32:15;;;;;;;;;;;;;;;13.10;55.12;101865.13;4146099;28;19927;-63
2021/11/07 08:34:19;;;;;;;;;;;;;;;13.10;55.15;101857.19;4146553;28;20293;-63
2021/11/07 08:36:25;;;;;;;;;;;;;;;13.10;55.26;101854.56;4146160;28;20341;-63
2021/11/07 08:38:31;;;;;;;;;;;;;;;13.11;54.97;101848.38;4146416;28;19927;-65
2021/11/07 08:40:43;;;;;;;;;;;;;;;13.11;54.96;101845.72;4146456;28;19921;-64
2021/11/07 08:43:11;;;;;;;;;;;;;;;13.10;55.40;101850.13;4146051;28;19940;-67
2021/11/07 09:04:38;;;;;;;;;;;;;;;13.15;54.93;101847.38;4152962;28;19925;-66
2021/11/07 09:06:44;;;;;;;;;;;;;;;13.15;55.03;101839.44;4146035;28;19925;-66
2021/11/07 09:08:48;;;;;;;;;;;;;;;13.15;54.73;101839.44;4160999;28;19924;-67
2021/11/07 09:10:50;;;;;;;;;;;;;;;13.16;55.20;101853.50;4146093;28;19981;-65
2021/11/07 09:12:52;;;;;;;;;;;;;;;13.15;54.96;101843.84;4146023;28;20443;-63
2021/11/07 09:14:54;;;;;;;;;;;;;;;13.17;54.86;101840.28;4146092;28;19921;-64
2021/11/07 09:16:57;;;;;;;;;;;;;;;13.18;55.41;101846.41;4146437;28;19929;-67
2021/11/07 09:19:00;;;;;;;;;;;;;;;13.18;54.97;101849.06;4146049;28;20365;-66
2021/11/07 09:23:13;;;;;;;;;;;;;;;13.18;54.93;101849.06;4150183;28;19991;-65
2021/11/07 09:27:37;;;;;;;;;;;;;;;13.17;55.33;101845.56;4151246;28;19925;-66
2021/11/07 09:30:00;;;;;;;;;;;;;;;13.18;55.39;101847.25;4151376;28;19925;-64
2021/11/07 09:32:16;;;;;;;;;;;;;;;13.19;55.18;101835.78;4151315;28;19929;-64
2021/11/07 09:34:24;;;;;;;;;;;;;;;13.20;55.37;101832.25;4149764;28;19922;-68
2021/11/07 09:36:30;;;;;;;;;;;;;;;13.22;55.17;101838.34;4135504;28;19922;-66
2021/11/07 09:38:39;;;;;;;;;;;;;;;13.24;54.81;101838.31;4151202;28;19925;-65
2021/11/07 09:40:57;;;;;;;;;;;;;;;13.24;54.95;101841.81;4151362;28;19921;-63
2021/11/07 09:45:23;;;;;;;;;;;;;;;13.26;54.80;101837.34;4151094;28;19922;-65
2021/11/07 09:47:28;;;;;;;;;;;;;;;13.28;55.13;101837.31;4151401;28;20321;-64
2021/11/07 09:49:37;;;;;;;;;;;;;;;13.29;55.38;101848.75;4150800;28;19925;-67
2021/11/07 09:51:40;;;;;;;;;;;;;;;13.29;55.07;101857.53;4151202;28;19932;-64
2021/11/07 09:53:47;;;;;;;;;;;;;;;13.31;55.37;101868.91;4151111;28;19921;-64
2021/11/07 09:55:50;;;;;;;;;;;;;;;13.31;55.43;101861.00;4151424;28;20355;-66
2021/11/07 09:57:55;;;;;;;;;;;;;;;13.33;55.34;101859.19;4151216;28;19925;-64
2021/11/07 09:59:59;;;;;;;;;;;;;;;13.33;55.72;101858.31;4150827;28;20047;-66
2021/11/07 10:02:02;;;;;;;;;;;;;;;13.34;55.81;101852.09;4151215;28;19975;-67
2021/11/07 10:04:04;;;;;;;;;;;;;;;13.34;55.64;101847.72;4150933;28;19941;-66
2021/11/07 10:06:21;;;;;;;;;;;;;;;13.37;55.78;101857.31;4151343;28;20281;-68
2021/11/07 10:08:26;;;;;;;;;;;;;;;13.36;55.87;101855.59;4151178;28;19921;-67
2021/11/07 10:10:31;;;;;;;;;;;;;;;13.37;55.98;101855.53;4151123;28;19948;-64
2021/11/07 10:12:53;;;;;;;;;;;;;;;13.38;56.12;101859.94;4151269;28;19921;-67
2021/11/07 10:15:00;;;;;;;;;;;;;;;13.38;56.06;101867.88;4150817;28;20321;-64
2021/11/07 10:17:04;;;;;;;;;;;;;;;13.40;55.68;101870.47;4152140;28;19921;-67
2021/11/07 10:19:22;;;;;;;;;;;;;;;13.38;55.92;101861.72;4165233;28;19925;-67
2021/11/07 10:21:44;;;;;;;;;;;;;;;13.38;55.79;101857.31;4151006;28;19925;-67
2021/11/07 10:23:50;;;;;;;;;;;;;;;13.41;55.64;101858.97;4151164;28;20429;-65
2021/11/07 10:26:22;;;;;;;;;;;;;;;13.41;56.33;101861.63;4150733;28;19937;-64
2021/11/07 10:28:22;;;;;;;;;;;;;;;13.41;56.09;101853.69;4134613;28;19929;-63
2021/11/07 10:30:26;;;;;;;;;;;;;;;13.41;55.78;101851.94;4144474;28;19984;-66
2021/11/07 10:32:40;;;;;;;;;;;;;;;13.42;56.14;101855.44;4150971;28;19928;-65
2021/11/07 10:35:14;;;;;;;;;;;;;;;13.44;55.98;101855.38;4147448;28;20504;-66
2021/11/07 10:44:19;;;;;;;;;;;;;;;13.44;55.70;101869.47;4162379;28;19967;-66
2021/11/07 10:46:40;;;;;;;;;;;;;;;13.45;55.50;101872.97;4168071;28;20052;-66
2021/11/07 10:53:27;;;;;;;;;;;;;;;13.47;56.14;101876.44;4148142;28;19925;-65
2021/11/07 10:55:33;;;;;;;;;;;;;;;13.47;56.49;101882.59;4146769;28;19956;-63
2021/11/07 10:57:35;;;;;;;;;;;;;;;13.47;55.85;101874.66;4146825;28;19929;-66
2021/11/07 10:59:37;;;;;;;;;;;;;;;13.49;56.68;101879.91;4148134;28;20515;-62
2021/11/07 11:01:40;;;;;;;;;;;;;;;13.49;56.39;101872.00;4147550;28;19921;-63
2021/11/07 11:03:43;;;;;;;;;;;;;;;13.48;56.46;101873.75;4147911;28;19921;-62
2021/11/07 11:06:03;;;;;;;;;;;;;;;13.49;56.13;101875.50;4147710;28;19933;-64
2021/11/07 11:08:18;;;;;;;;;;;;;;;13.50;56.02;101887.78;4137139;28;20382;-68
2021/11/07 11:10:24;;;;;;;;;;;;;;;13.50;56.22;101887.78;4147808;28;19926;-65
2021/11/07 11:12:26;;;;;;;;;;;;;;;13.50;56.34;101873.69;4147545;28;19929;-70
2021/11/07 11:14:37;;;;;;;;;;;;;;;13.50;56.25;101874.59;4147766;28;20408;-63
2021/11/07 11:23:56;;;;;;;;;;;;;;;13.52;56.06;101854.25;4142214;28;19991;-63
2021/11/07 11:28:47;;;;;;;;;;;;;;;13.52;56.02;101841.03;4145901;28;19921;-66
2021/11/07 11:31:06;;;;;;;;;;;;;;;13.53;55.94;101823.41;4147556;28;20456;-63
2021/11/07 11:35:25;;;;;;;;;;;;;;;13.54;56.35;101833.06;4147318;28;19928;-63
2021/11/07 11:39:44;;;;;;;;;;;;;;;13.54;56.78;101839.22;4147552;28;19921;-64
2021/11/07 11:42:00;;;;;;;;;;;;;;;13.57;56.70;101839.13;4147312;28;20321;-64
2021/11/07 11:44:03;;;;;;;;;;;;;;;13.57;56.66;101833.84;4162387;28;19921;-66
2021/11/07 11:46:36;;;;;;;;;;;;;;;13.58;56.22;101838.22;4146817;28;19937;-64
2021/11/07 12:00:46;;;;;;;;;;;;;;;13.63;56.13;101824.84;4162820;28;19976;-63
2021/11/07 12:02:52;;;;;;;;;;;;;;;13.63;55.95;101831.91;4146659;28;19921;-68
2021/11/07 12:07:36;;;;;;;;;;;;;;;13.63;55.84;101838.06;4146810;28;20440;-65
2021/11/07 12:10:00;;;;;;;;;;;;;;;13.64;55.73;101828.38;4161713;28;19921;-64
2021/11/07 12:12:15;;;;;;;;;;;;;;;13.64;55.89;101833.66;4147081;28;19948;-68
2021/11/07 12:14:30;;;;;;;;;;;;;;;13.64;56.04;101833.66;4146468;28;20396;-67
2021/11/07 12:16:53;;;;;;;;;;;;;;;13.64;56.11;101833.66;4146734;28;19921;-68
2021/11/07 12:19:05;;;;;;;;;;;;;;;13.64;55.98;101842.44;4139065;28;19921;-67
2021/11/07 12:21:07;;;;;;;;;;;;;;;13.64;55.75;101825.72;4146510;28;19922;-67
2021/11/07 12:23:23;;;;;;;;;;;;;;;13.64;56.15;101820.44;4146503;28;19926;-66
2021/11/07 12:25:27;;;;;;;;;;;;;;;13.64;55.78;101828.38;4144714;28;19949;-64
2021/11/07 12:27:42;;;;;;;;;;;;;;;13.64;55.53;101823.94;4146607;28;19977;-64
2021/11/07 12:29:44;;;;;;;;;;;;;;;13.65;55.51;101819.53;4146162;28;19925;-67